Terminal Aerodrome Forecast
Issued by NWS Knoxville/Tri Cities, TN

Home | Current Version | Previous Version | Text Only | Print | Product List | Glossary On
Versions: 1 2 3 4 5 6 7 8 9 10 11 12 13 14 15 16 17 18 19 20 21 22 23 24 25 26 27 28 29
000
FTUS44 KMRX 231606 AAC
TAFCHA
TAF AMD
KCHA 231606Z 2316/2412 01008KT 4SM -RA BR SCT007 OVC015
      WS020/15050KT
      TEMPO 2316/2318 2SM RA BR BKN007
     FM240000 18012KT P6SM OVC010
     FM240600 20010KT P6SM BKN015=

USA.gov is the U.S. government's official web portal to all federal, state and local government web resources and services.